sensor_id;sensor_type;location;lat;lon;timestamp;P1;durP1;ratioP1;P2;durP2;ratioP2
142;SDS011;63667;49.046;8.468;2023-06-04T00:02:24;22.63;;;7.53;;
142;SDS011;63667;49.046;8.468;2023-06-04T00:04:51;10.73;;;7.30;;
142;SDS011;63667;49.046;8.468;2023-06-04T00:07:19;9.73;;;6.67;;
142;SDS011;63667;49.046;8.468;2023-06-04T00:09:46;10.30;;;6.93;;
142;SDS011;63667;49.046;8.468;2023-06-04T00:12:14;12.33;;;7.00;;
142;SDS011;63667;49.046;8.468;2023-06-04T00:14:42;12.90;;;7.63;;
142;SDS011;63667;49.046;8.468;2023-06-04T00:17:10;11.33;;;6.73;;
142;SDS011;63667;49.046;8.468;2023-06-04T00:19:38;18.43;;;8.20;;
142;SDS011;63667;49.046;8.468;2023-06-04T00:22:06;11.77;;;7.80;;
142;SDS011;63667;49.046;8.468;2023-06-04T00:24:34;18.20;;;7.43;;
142;SDS011;63667;49.046;8.468;2023-06-04T00:27:01;9.13;;;6.90;;
142;SDS011;63667;49.046;8.468;2023-06-04T00:29:28;15.00;;;7.30;;
142;SDS011;63667;49.046;8.468;2023-06-04T00:31:56;12.50;;;7.37;;
142;SDS011;63667;49.046;8.468;2023-06-04T00:34:23;12.30;;;6.57;;
142;SDS011;63667;49.046;8.468;2023-06-04T00:36:50;9.10;;;6.53;;
142;SDS011;63667;49.046;8.468;2023-06-04T00:39:18;10.67;;;6.30;;
142;SDS011;63667;49.046;8.468;2023-06-04T00:41:45;12.90;;;6.93;;
142;SDS011;63667;49.046;8.468;2023-06-04T00:44:12;9.87;;;6.63;;
142;SDS011;63667;49.046;8.468;2023-06-04T00:46:40;9.20;;;6.30;;
142;SDS011;63667;49.046;8.468;2023-06-04T00:49:11;19.20;;;7.17;;
142;SDS011;63667;49.046;8.468;2023-06-04T00:51:38;9.43;;;6.60;;
142;SDS011;63667;49.046;8.468;2023-06-04T00:54:06;10.70;;;6.90;;
142;SDS011;63667;49.046;8.468;2023-06-04T00:56:36;11.00;;;6.20;;
142;SDS011;63667;49.046;8.468;2023-06-04T00:59:05;9.70;;;6.87;;
142;SDS011;63667;49.046;8.468;2023-06-04T01:01:49;12.43;;;6.60;;
142;SDS011;63667;49.046;8.468;2023-06-04T01:04:34;8.93;;;6.10;;
142;SDS011;63667;49.046;8.468;2023-06-04T01:07:03;12.63;;;6.03;;
142;SDS011;63667;49.046;8.468;2023-06-04T01:09:30;11.30;;;6.03;;
142;SDS011;63667;49.046;8.468;2023-06-04T01:11:58;12.00;;;6.30;;
142;SDS011;63667;49.046;8.468;2023-06-04T01:14:27;11.27;;;6.20;;
142;SDS011;63667;49.046;8.468;2023-06-04T01:22:00;10.90;;;5.90;;
142;SDS011;63667;49.046;8.468;2023-06-04T01:24:29;16.00;;;6.63;;
142;SDS011;63667;49.046;8.468;2023-06-04T01:27:04;9.47;;;6.17;;
142;SDS011;63667;49.046;8.468;2023-06-04T01:29:35;13.57;;;5.93;;
142;SDS011;63667;49.046;8.468;2023-06-04T01:32:03;6.67;;;4.93;;
142;SDS011;63667;49.046;8.468;2023-06-04T01:34:31;7.93;;;5.60;;
142;SDS011;63667;49.046;8.468;2023-06-04T01:37:09;11.90;;;5.40;;
142;SDS011;63667;49.046;8.468;2023-06-04T01:39:37;13.13;;;6.03;;
142;SDS011;63667;49.046;8.468;2023-06-04T01:42:04;8.83;;;5.60;;
142;SDS011;63667;49.046;8.468;2023-06-04T01:44:33;8.10;;;5.10;;
142;SDS011;63667;49.046;8.468;2023-06-04T01:47:01;6.97;;;4.40;;
142;SDS011;63667;49.046;8.468;2023-06-04T01:49:28;13.57;;;4.90;;
142;SDS011;63667;49.046;8.468;2023-06-04T01:51:56;9.90;;;4.50;;
142;SDS011;63667;49.046;8.468;2023-06-04T01:54:22;8.07;;;4.63;;
142;SDS011;63667;49.046;8.468;2023-06-04T01:56:50;6.77;;;4.23;;
142;SDS011;63667;49.046;8.468;2023-06-04T01:59:17;6.40;;;4.50;;
142;SDS011;63667;49.046;8.468;2023-06-04T02:01:44;7.97;;;4.37;;
142;SDS011;63667;49.046;8.468;2023-06-04T02:04:12;7.53;;;4.83;;
142;SDS011;63667;49.046;8.468;2023-06-04T02:06:38;10.93;;;4.90;;
142;SDS011;63667;49.046;8.468;2023-06-04T02:09:05;13.17;;;4.33;;
142;SDS011;63667;49.046;8.468;2023-06-04T02:11:33;8.07;;;4.00;;
142;SDS011;63667;49.046;8.468;2023-06-04T02:14:00;7.83;;;4.40;;
142;SDS011;63667;49.046;8.468;2023-06-04T02:16:31;12.77;;;4.60;;
142;SDS011;63667;49.046;8.468;2023-06-04T02:18:59;6.43;;;4.67;;
142;SDS011;63667;49.046;8.468;2023-06-04T02:21:26;4.20;;;3.70;;
142;SDS011;63667;49.046;8.468;2023-06-04T02:23:54;9.73;;;4.70;;
142;SDS011;63667;49.046;8.468;2023-06-04T02:26:21;6.87;;;4.10;;
142;SDS011;63667;49.046;8.468;2023-06-04T02:28:49;9.53;;;4.30;;
142;SDS011;63667;49.046;8.468;2023-06-04T02:31:17;13.80;;;4.20;;
142;SDS011;63667;49.046;8.468;2023-06-04T02:33:44;4.30;;;3.50;;
142;SDS011;63667;49.046;8.468;2023-06-04T02:36:12;6.80;;;3.77;;
142;SDS011;63667;49.046;8.468;2023-06-04T02:38:39;11.40;;;4.00;;
142;SDS011;63667;49.046;8.468;2023-06-04T02:41:06;7.43;;;4.00;;
142;SDS011;63667;49.046;8.468;2023-06-04T02:43:36;6.37;;;4.00;;
142;SDS011;63667;49.046;8.468;2023-06-04T02:46:03;6.83;;;3.83;;
142;SDS011;63667;49.046;8.468;2023-06-04T02:48:32;5.53;;;3.43;;
142;SDS011;63667;49.046;8.468;2023-06-04T02:50:59;7.00;;;3.80;;
142;SDS011;63667;49.046;8.468;2023-06-04T02:53:26;6.60;;;3.40;;
142;SDS011;63667;49.046;8.468;2023-06-04T02:55:54;10.57;;;3.47;;
142;SDS011;63667;49.046;8.468;2023-06-04T02:58:21;12.03;;;3.77;;
142;SDS011;63667;49.046;8.468;2023-06-04T03:00:52;4.80;;;3.63;;
142;SDS011;63667;49.046;8.468;2023-06-04T03:03:19;3.77;;;2.83;;
142;SDS011;63667;49.046;8.468;2023-06-04T03:05:46;4.60;;;3.33;;
142;SDS011;63667;49.046;8.468;2023-06-04T03:08:13;7.97;;;3.53;;
142;SDS011;63667;49.046;8.468;2023-06-04T03:10:41;6.63;;;3.33;;
142;SDS011;63667;49.046;8.468;2023-06-04T03:13:08;5.00;;;3.30;;
142;SDS011;63667;49.046;8.468;2023-06-04T03:15:36;6.00;;;3.43;;
142;SDS011;63667;49.046;8.468;2023-06-04T03:18:04;6.17;;;3.90;;
142;SDS011;63667;49.046;8.468;2023-06-04T03:20:32;6.40;;;3.53;;
142;SDS011;63667;49.046;8.468;2023-06-04T03:23:04;5.70;;;3.70;;
142;SDS011;63667;49.046;8.468;2023-06-04T03:25:31;5.00;;;3.10;;
142;SDS011;63667;49.046;8.468;2023-06-04T03:28:00;7.20;;;3.47;;
142;SDS011;63667;49.046;8.468;2023-06-04T03:30:28;7.20;;;3.43;;
142;SDS011;63667;49.046;8.468;2023-06-04T03:32:55;4.23;;;3.20;;
142;SDS011;63667;49.046;8.468;2023-06-04T03:35:22;5.87;;;3.27;;
142;SDS011;63667;49.046;8.468;2023-06-04T03:37:50;7.43;;;3.80;;
142;SDS011;63667;49.046;8.468;2023-06-04T03:40:20;5.73;;;3.70;;
142;SDS011;63667;49.046;8.468;2023-06-04T03:42:47;5.80;;;3.50;;
142;SDS011;63667;49.046;8.468;2023-06-04T03:45:14;8.67;;;3.67;;
142;SDS011;63667;49.046;8.468;2023-06-04T03:47:42;7.67;;;3.17;;
142;SDS011;63667;49.046;8.468;2023-06-04T03:50:09;15.50;;;3.20;;
142;SDS011;63667;49.046;8.468;2023-06-04T03:52:37;4.60;;;3.07;;
142;SDS011;63667;49.046;8.468;2023-06-04T03:55:04;5.23;;;2.90;;
142;SDS011;63667;49.046;8.468;2023-06-04T03:57:31;8.83;;;3.40;;
142;SDS011;63667;49.046;8.468;2023-06-04T03:59:58;9.13;;;3.03;;
142;SDS011;63667;49.046;8.468;2023-06-04T04:02:26;4.57;;;2.90;;
142;SDS011;63667;49.046;8.468;2023-06-04T04:04:52;4.37;;;3.10;;
142;SDS011;63667;49.046;8.468;2023-06-04T04:07:20;5.53;;;3.33;;
142;SDS011;63667;49.046;8.468;2023-06-04T04:09:47;7.40;;;3.50;;
142;SDS011;63667;49.046;8.468;2023-06-04T04:12:14;17.37;;;2.93;;
142;SDS011;63667;49.046;8.468;2023-06-04T04:14:41;7.57;;;3.77;;
142;SDS011;63667;49.046;8.468;2023-06-04T04:17:09;3.80;;;3.17;;
142;SDS011;63667;49.046;8.468;2023-06-04T04:19:36;15.60;;;3.60;;
142;SDS011;63667;49.046;8.468;2023-06-04T04:22:03;8.87;;;2.90;;
142;SDS011;63667;49.046;8.468;2023-06-04T04:24:31;6.20;;;3.47;;
142;SDS011;63667;49.046;8.468;2023-06-04T04:27:01;18.80;;;3.67;;
142;SDS011;63667;49.046;8.468;2023-06-04T04:29:30;5.53;;;3.17;;
142;SDS011;63667;49.046;8.468;2023-06-04T04:32:01;4.00;;;2.80;;
142;SDS011;63667;49.046;8.468;2023-06-04T04:34:38;3.60;;;2.87;;
142;SDS011;63667;49.046;8.468;2023-06-04T04:37:05;5.30;;;2.83;;
142;SDS011;63667;49.046;8.468;2023-06-04T04:39:34;4.77;;;2.90;;
142;SDS011;63667;49.046;8.468;2023-06-04T04:42:02;7.13;;;3.23;;
142;SDS011;63667;49.046;8.468;2023-06-04T04:44:30;3.03;;;2.83;;
142;SDS011;63667;49.046;8.468;2023-06-04T04:46:57;5.87;;;3.00;;
142;SDS011;63667;49.046;8.468;2023-06-04T04:49:25;3.67;;;3.00;;
142;SDS011;63667;49.046;8.468;2023-06-04T04:51:52;6.03;;;2.87;;
142;SDS011;63667;49.046;8.468;2023-06-04T04:54:19;3.20;;;2.63;;
142;SDS011;63667;49.046;8.468;2023-06-04T04:56:47;3.37;;;2.90;;
142;SDS011;63667;49.046;8.468;2023-06-04T04:59:14;6.50;;;3.17;;
142;SDS011;63667;49.046;8.468;2023-06-04T05:01:41;7.53;;;2.80;;
142;SDS011;63667;49.046;8.468;2023-06-04T05:04:09;3.53;;;2.60;;
142;SDS011;63667;49.046;8.468;2023-06-04T05:06:37;6.33;;;2.60;;
142;SDS011;63667;49.046;8.468;2023-06-04T05:09:04;4.90;;;2.67;;
142;SDS011;63667;49.046;8.468;2023-06-04T05:11:33;4.00;;;3.17;;
142;SDS011;63667;49.046;8.468;2023-06-04T05:14:00;5.77;;;3.03;;
142;SDS011;63667;49.046;8.468;2023-06-04T05:16:27;3.20;;;2.87;;
142;SDS011;63667;49.046;8.468;2023-06-04T05:18:55;4.80;;;2.97;;
142;SDS011;63667;49.046;8.468;2023-06-04T05:21:22;3.47;;;2.90;;
142;SDS011;63667;49.046;8.468;2023-06-04T05:23:50;3.97;;;3.00;;
142;SDS011;63667;49.046;8.468;2023-06-04T05:26:18;7.37;;;3.10;;
142;SDS011;63667;49.046;8.468;2023-06-04T05:28:49;3.87;;;2.80;;
142;SDS011;63667;49.046;8.468;2023-06-04T05:31:16;3.90;;;3.20;;
142;SDS011;63667;49.046;8.468;2023-06-04T05:33:44;6.37;;;3.00;;
142;SDS011;63667;49.046;8.468;2023-06-04T05:36:11;16.47;;;3.10;;
142;SDS011;63667;49.046;8.468;2023-06-04T05:38:38;5.03;;;2.60;;
142;SDS011;63667;49.046;8.468;2023-06-04T05:41:07;4.20;;;3.27;;
142;SDS011;63667;49.046;8.468;2023-06-04T05:43:35;4.17;;;2.80;;
142;SDS011;63667;49.046;8.468;2023-06-04T05:46:02;3.57;;;2.63;;
142;SDS011;63667;49.046;8.468;2023-06-04T05:48:31;4.73;;;2.43;;
142;SDS011;63667;49.046;8.468;2023-06-04T05:50:59;3.97;;;3.20;;
142;SDS011;63667;49.046;8.468;2023-06-04T05:53:28;12.83;;;3.20;;
142;SDS011;63667;49.046;8.468;2023-06-04T05:55:56;6.53;;;2.80;;
142;SDS011;63667;49.046;8.468;2023-06-04T05:58:23;3.83;;;2.83;;
142;SDS011;63667;49.046;8.468;2023-06-04T06:00:50;4.30;;;3.17;;
142;SDS011;63667;49.046;8.468;2023-06-04T06:03:20;5.40;;;3.07;;
142;SDS011;63667;49.046;8.468;2023-06-04T06:05:47;3.93;;;2.73;;
142;SDS011;63667;49.046;8.468;2023-06-04T06:08:15;4.13;;;2.80;;
142;SDS011;63667;49.046;8.468;2023-06-04T06:10:42;6.20;;;3.00;;
142;SDS011;63667;49.046;8.468;2023-06-04T06:13:10;6.47;;;2.80;;
142;SDS011;63667;49.046;8.468;2023-06-04T06:15:39;4.97;;;3.13;;
142;SDS011;63667;49.046;8.468;2023-06-04T06:18:07;6.00;;;2.83;;
142;SDS011;63667;49.046;8.468;2023-06-04T06:20:35;12.23;;;3.20;;
142;SDS011;63667;49.046;8.468;2023-06-04T06:23:05;3.43;;;2.70;;
142;SDS011;63667;49.046;8.468;2023-06-04T06:25:33;5.57;;;2.90;;
142;SDS011;63667;49.046;8.468;2023-06-04T06:28:02;4.53;;;2.60;;
142;SDS011;63667;49.046;8.468;2023-06-04T06:30:29;4.20;;;2.83;;
142;SDS011;63667;49.046;8.468;2023-06-04T06:32:56;5.60;;;3.10;;
142;SDS011;63667;49.046;8.468;2023-06-04T06:35:24;4.70;;;3.23;;
142;SDS011;63667;49.046;8.468;2023-06-04T06:37:51;5.70;;;2.80;;
142;SDS011;63667;49.046;8.468;2023-06-04T06:40:19;3.33;;;2.77;;
142;SDS011;63667;49.046;8.468;2023-06-04T06:42:49;5.00;;;3.20;;
142;SDS011;63667;49.046;8.468;2023-06-04T06:45:20;5.17;;;2.73;;
142;SDS011;63667;49.046;8.468;2023-06-04T06:47:47;6.20;;;3.10;;
142;SDS011;63667;49.046;8.468;2023-06-04T06:50:14;3.73;;;2.70;;
142;SDS011;63667;49.046;8.468;2023-06-04T06:52:42;4.27;;;3.20;;
142;SDS011;63667;49.046;8.468;2023-06-04T06:55:09;7.50;;;3.80;;
142;SDS011;63667;49.046;8.468;2023-06-04T06:57:36;4.80;;;3.00;;
142;SDS011;63667;49.046;8.468;2023-06-04T07:00:04;5.13;;;3.17;;
142;SDS011;63667;49.046;8.468;2023-06-04T07:02:33;6.33;;;3.27;;
142;SDS011;63667;49.046;8.468;2023-06-04T07:05:00;3.80;;;2.97;;
142;SDS011;63667;49.046;8.468;2023-06-04T07:07:27;3.50;;;2.90;;
142;SDS011;63667;49.046;8.468;2023-06-04T07:09:55;4.77;;;2.97;;
142;SDS011;63667;49.046;8.468;2023-06-04T07:12:22;4.77;;;3.10;;
142;SDS011;63667;49.046;8.468;2023-06-04T07:14:49;5.60;;;2.90;;
142;SDS011;63667;49.046;8.468;2023-06-04T07:17:17;8.27;;;3.47;;
142;SDS011;63667;49.046;8.468;2023-06-04T07:19:44;4.77;;;3.07;;
142;SDS011;63667;49.046;8.468;2023-06-04T07:22:11;6.20;;;2.90;;
142;SDS011;63667;49.046;8.468;2023-06-04T07:24:44;6.23;;;3.27;;
142;SDS011;63667;49.046;8.468;2023-06-04T07:27:11;4.43;;;3.30;;
142;SDS011;63667;49.046;8.468;2023-06-04T07:29:39;4.93;;;3.03;;
142;SDS011;63667;49.046;8.468;2023-06-04T07:32:06;5.60;;;3.40;;
142;SDS011;63667;49.046;8.468;2023-06-04T07:34:34;5.37;;;3.37;;
142;SDS011;63667;49.046;8.468;2023-06-04T07:37:03;6.73;;;3.20;;
142;SDS011;63667;49.046;8.468;2023-06-04T07:39:31;8.03;;;3.00;;
142;SDS011;63667;49.046;8.468;2023-06-04T07:42:04;7.60;;;3.20;;
142;SDS011;63667;49.046;8.468;2023-06-04T07:44:33;14.10;;;3.90;;
142;SDS011;63667;49.046;8.468;2023-06-04T07:47:03;8.23;;;3.10;;
142;SDS011;63667;49.046;8.468;2023-06-04T07:49:30;6.33;;;3.10;;
142;SDS011;63667;49.046;8.468;2023-06-04T07:52:02;5.83;;;2.90;;
142;SDS011;63667;49.046;8.468;2023-06-04T07:54:30;4.37;;;3.23;;
142;SDS011;63667;49.046;8.468;2023-06-04T07:56:57;7.93;;;3.67;;
142;SDS011;63667;49.046;8.468;2023-06-04T07:59:24;3.30;;;2.90;;
142;SDS011;63667;49.046;8.468;2023-06-04T08:01:55;5.90;;;3.20;;
142;SDS011;63667;49.046;8.468;2023-06-04T08:04:23;4.40;;;3.50;;
142;SDS011;63667;49.046;8.468;2023-06-04T08:06:51;4.30;;;3.20;;
142;SDS011;63667;49.046;8.468;2023-06-04T08:09:18;6.27;;;3.27;;
142;SDS011;63667;49.046;8.468;2023-06-04T08:11:46;6.30;;;3.33;;
142;SDS011;63667;49.046;8.468;2023-06-04T08:14:14;7.97;;;3.60;;
142;SDS011;63667;49.046;8.468;2023-06-04T08:16:41;6.10;;;3.67;;
142;SDS011;63667;49.046;8.468;2023-06-04T08:19:08;13.23;;;3.30;;
142;SDS011;63667;49.046;8.468;2023-06-04T08:21:35;6.50;;;3.53;;
142;SDS011;63667;49.046;8.468;2023-06-04T08:24:03;6.63;;;3.60;;
142;SDS011;63667;49.046;8.468;2023-06-04T08:26:31;6.87;;;3.40;;
142;SDS011;63667;49.046;8.468;2023-06-04T08:29:02;7.17;;;3.30;;
142;SDS011;63667;49.046;8.468;2023-06-04T08:31:31;4.53;;;3.20;;
142;SDS011;63667;49.046;8.468;2023-06-04T08:33:58;3.50;;;3.17;;
142;SDS011;63667;49.046;8.468;2023-06-04T08:36:26;6.73;;;3.57;;
142;SDS011;63667;49.046;8.468;2023-06-04T08:38:53;9.43;;;3.50;;
142;SDS011;63667;49.046;8.468;2023-06-04T08:41:28;6.10;;;3.40;;
142;SDS011;63667;49.046;8.468;2023-06-04T08:43:57;4.27;;;3.50;;
142;SDS011;63667;49.046;8.468;2023-06-04T08:46:28;7.10;;;3.63;;
142;SDS011;63667;49.046;8.468;2023-06-04T08:48:59;7.43;;;3.60;;
142;SDS011;63667;49.046;8.468;2023-06-04T08:51:28;9.73;;;3.80;;
142;SDS011;63667;49.046;8.468;2023-06-04T08:53:55;5.80;;;3.40;;
142;SDS011;63667;49.046;8.468;2023-06-04T08:56:23;9.83;;;3.57;;
142;SDS011;63667;49.046;8.468;2023-06-04T08:58:52;6.40;;;3.80;;
142;SDS011;63667;49.046;8.468;2023-06-04T09:01:20;4.17;;;3.57;;
142;SDS011;63667;49.046;8.468;2023-06-04T09:03:47;9.10;;;3.67;;
142;SDS011;63667;49.046;8.468;2023-06-04T09:06:14;14.30;;;4.10;;
142;SDS011;63667;49.046;8.468;2023-06-04T09:08:42;4.50;;;3.43;;
142;SDS011;63667;49.046;8.468;2023-06-04T09:11:11;5.07;;;3.93;;
142;SDS011;63667;49.046;8.468;2023-06-04T09:13:39;4.83;;;3.60;;
142;SDS011;63667;49.046;8.468;2023-06-04T09:16:08;5.97;;;3.80;;
142;SDS011;63667;49.046;8.468;2023-06-04T09:18:35;7.47;;;4.17;;
142;SDS011;63667;49.046;8.468;2023-06-04T09:21:06;5.83;;;4.07;;
142;SDS011;63667;49.046;8.468;2023-06-04T09:23:45;6.23;;;4.03;;
142;SDS011;63667;49.046;8.468;2023-06-04T09:26:15;7.47;;;3.77;;
142;SDS011;63667;49.046;8.468;2023-06-04T09:28:44;6.37;;;4.03;;
142;SDS011;63667;49.046;8.468;2023-06-04T09:31:15;14.23;;;8.20;;
142;SDS011;63667;49.046;8.468;2023-06-04T09:33:43;10.53;;;8.33;;
142;SDS011;63667;49.046;8.468;2023-06-04T09:36:10;6.47;;;4.33;;
142;SDS011;63667;49.046;8.468;2023-06-04T09:38:38;6.40;;;4.67;;
142;SDS011;63667;49.046;8.468;2023-06-04T09:41:13;8.57;;;4.77;;
142;SDS011;63667;49.046;8.468;2023-06-04T09:43:40;7.53;;;3.90;;
142;SDS011;63667;49.046;8.468;2023-06-04T09:46:11;7.13;;;4.10;;
142;SDS011;63667;49.046;8.468;2023-06-04T09:48:38;7.90;;;4.20;;
142;SDS011;63667;49.046;8.468;2023-06-04T09:51:12;7.63;;;3.83;;
142;SDS011;63667;49.046;8.468;2023-06-04T09:53:59;5.33;;;3.77;;
142;SDS011;63667;49.046;8.468;2023-06-04T09:56:26;4.90;;;3.70;;
142;SDS011;63667;49.046;8.468;2023-06-04T09:58:57;9.07;;;4.00;;
142;SDS011;63667;49.046;8.468;2023-06-04T10:01:27;4.03;;;3.53;;
142;SDS011;63667;49.046;8.468;2023-06-04T10:03:56;7.83;;;4.30;;
142;SDS011;63667;49.046;8.468;2023-06-04T10:06:24;4.90;;;3.90;;
142;SDS011;63667;49.046;8.468;2023-06-04T10:08:52;4.57;;;3.53;;
142;SDS011;63667;49.046;8.468;2023-06-04T10:11:25;7.40;;;4.20;;
142;SDS011;63667;49.046;8.468;2023-06-04T10:13:57;5.87;;;3.90;;
142;SDS011;63667;49.046;8.468;2023-06-04T10:16:26;11.80;;;3.93;;
142;SDS011;63667;49.046;8.468;2023-06-04T10:18:55;7.27;;;3.83;;
142;SDS011;63667;49.046;8.468;2023-06-04T10:21:23;8.07;;;4.30;;
142;SDS011;63667;49.046;8.468;2023-06-04T10:23:50;6.50;;;4.20;;
142;SDS011;63667;49.046;8.468;2023-06-04T10:26:17;5.73;;;3.27;;
142;SDS011;63667;49.046;8.468;2023-06-04T10:28:44;5.10;;;4.00;;
142;SDS011;63667;49.046;8.468;2023-06-04T10:31:12;8.50;;;4.20;;
142;SDS011;63667;49.046;8.468;2023-06-04T10:33:39;4.23;;;3.70;;
142;SDS011;63667;49.046;8.468;2023-06-04T10:36:17;6.47;;;4.80;;
142;SDS011;63667;49.046;8.468;2023-06-04T10:38:45;8.40;;;4.20;;
142;SDS011;63667;49.046;8.468;2023-06-04T10:41:15;11.20;;;3.70;;
142;SDS011;63667;49.046;8.468;2023-06-04T10:43:44;6.07;;;4.17;;
142;SDS011;63667;49.046;8.468;2023-06-04T10:46:12;4.23;;;3.40;;
142;SDS011;63667;49.046;8.468;2023-06-04T10:48:49;4.90;;;3.70;;
142;SDS011;63667;49.046;8.468;2023-06-04T10:51:29;4.63;;;3.40;;
142;SDS011;63667;49.046;8.468;2023-06-04T10:53:57;5.40;;;3.50;;
142;SDS011;63667;49.046;8.468;2023-06-04T10:56:28;7.83;;;3.90;;
142;SDS011;63667;49.046;8.468;2023-06-04T10:58:55;6.50;;;3.60;;
142;SDS011;63667;49.046;8.468;2023-06-04T11:01:25;4.20;;;3.47;;
142;SDS011;63667;49.046;8.468;2023-06-04T11:03:57;7.10;;;3.77;;
142;SDS011;63667;49.046;8.468;2023-06-04T11:06:24;4.27;;;3.83;;
142;SDS011;63667;49.046;8.468;2023-06-04T11:09:03;5.70;;;3.20;;
142;SDS011;63667;49.046;8.468;2023-06-04T11:11:31;6.93;;;4.10;;
142;SDS011;63667;49.046;8.468;2023-06-04T11:14:08;3.80;;;3.60;;
142;SDS011;63667;49.046;8.468;2023-06-04T11:16:36;6.30;;;4.17;;
142;SDS011;63667;49.046;8.468;2023-06-04T11:19:03;8.93;;;3.80;;
142;SDS011;63667;49.046;8.468;2023-06-04T11:21:30;4.40;;;4.10;;
142;SDS011;63667;49.046;8.468;2023-06-04T11:24:02;4.60;;;3.70;;
142;SDS011;63667;49.046;8.468;2023-06-04T11:26:30;5.33;;;4.33;;
142;SDS011;63667;49.046;8.468;2023-06-04T11:28:58;6.27;;;3.93;;
142;SDS011;63667;49.046;8.468;2023-06-04T11:31:25;4.10;;;3.63;;
142;SDS011;63667;49.046;8.468;2023-06-04T11:33:53;5.23;;;4.10;;
142;SDS011;63667;49.046;8.468;2023-06-04T11:36:26;6.33;;;3.90;;
142;SDS011;63667;49.046;8.468;2023-06-04T11:39:03;7.50;;;4.10;;
142;SDS011;63667;49.046;8.468;2023-06-04T11:41:41;4.53;;;3.90;;
142;SDS011;63667;49.046;8.468;2023-06-04T11:44:08;7.00;;;4.17;;
142;SDS011;63667;49.046;8.468;2023-06-04T11:46:39;4.33;;;3.90;;
142;SDS011;63667;49.046;8.468;2023-06-04T11:49:06;4.60;;;3.83;;
142;SDS011;63667;49.046;8.468;2023-06-04T11:51:33;4.47;;;3.70;;
142;SDS011;63667;49.046;8.468;2023-06-04T11:54:01;5.37;;;4.13;;
142;SDS011;63667;49.046;8.468;2023-06-04T11:56:29;4.20;;;3.87;;
142;SDS011;63667;49.046;8.468;2023-06-04T11:58:57;4.50;;;3.70;;
142;SDS011;63667;49.046;8.468;2023-06-04T12:01:24;4.77;;;4.07;;
142;SDS011;63667;49.046;8.468;2023-06-04T12:03:54;4.60;;;4.10;;
142;SDS011;63667;49.046;8.468;2023-06-04T12:06:22;13.73;;;4.43;;
142;SDS011;63667;49.046;8.468;2023-06-04T12:08:49;5.50;;;4.20;;
142;SDS011;63667;49.046;8.468;2023-06-04T12:11:26;6.43;;;4.23;;
142;SDS011;63667;49.046;8.468;2023-06-04T12:13:55;4.67;;;4.10;;
142;SDS011;63667;49.046;8.468;2023-06-04T12:16:22;6.73;;;4.40;;
142;SDS011;63667;49.046;8.468;2023-06-04T12:18:49;5.63;;;4.33;;
142;SDS011;63667;49.046;8.468;2023-06-04T12:21:17;4.80;;;4.50;;
142;SDS011;63667;49.046;8.468;2023-06-04T12:23:45;7.50;;;4.20;;
142;SDS011;63667;49.046;8.468;2023-06-04T12:26:22;4.93;;;4.10;;
142;SDS011;63667;49.046;8.468;2023-06-04T12:28:59;4.67;;;4.20;;
142;SDS011;63667;49.046;8.468;2023-06-04T12:31:26;9.77;;;4.13;;
142;SDS011;63667;49.046;8.468;2023-06-04T12:33:58;6.20;;;4.50;;
142;SDS011;63667;49.046;8.468;2023-06-04T12:36:26;5.43;;;4.70;;
142;SDS011;63667;49.046;8.468;2023-06-04T12:38:59;4.60;;;4.30;;
142;SDS011;63667;49.046;8.468;2023-06-04T12:41:27;5.33;;;3.97;;
142;SDS011;63667;49.046;8.468;2023-06-04T12:43:54;8.77;;;4.77;;
142;SDS011;63667;49.046;8.468;2023-06-04T12:46:22;6.17;;;3.80;;
142;SDS011;63667;49.046;8.468;2023-06-04T12:48:50;5.77;;;4.07;;
142;SDS011;63667;49.046;8.468;2023-06-04T12:51:17;8.40;;;4.00;;
142;SDS011;63667;49.046;8.468;2023-06-04T12:53:46;6.50;;;4.53;;
142;SDS011;63667;49.046;8.468;2023-06-04T12:56:14;10.60;;;5.00;;
142;SDS011;63667;49.046;8.468;2023-06-04T12:58:41;5.93;;;4.80;;
142;SDS011;63667;49.046;8.468;2023-06-04T13:01:09;5.60;;;4.73;;
142;SDS011;63667;49.046;8.468;2023-06-04T13:03:37;4.73;;;4.50;;
142;SDS011;63667;49.046;8.468;2023-06-04T13:06:04;8.00;;;4.13;;
142;SDS011;63667;49.046;8.468;2023-06-04T13:08:32;4.60;;;4.30;;
142;SDS011;63667;49.046;8.468;2023-06-04T13:10:59;6.23;;;4.60;;
142;SDS011;63667;49.046;8.468;2023-06-04T13:13:27;8.40;;;4.47;;
142;SDS011;63667;49.046;8.468;2023-06-04T13:15:55;4.67;;;4.37;;
142;SDS011;63667;49.046;8.468;2023-06-04T13:18:22;5.00;;;3.97;;
142;SDS011;63667;49.046;8.468;2023-06-04T13:20:49;5.70;;;5.00;;
142;SDS011;63667;49.046;8.468;2023-06-04T13:23:17;5.30;;;4.37;;
142;SDS011;63667;49.046;8.468;2023-06-04T13:25:44;4.77;;;4.43;;
142;SDS011;63667;49.046;8.468;2023-06-04T13:28:11;4.60;;;4.23;;
142;SDS011;63667;49.046;8.468;2023-06-04T13:30:39;8.97;;;4.40;;
142;SDS011;63667;49.046;8.468;2023-06-04T13:33:06;6.03;;;4.23;;
142;SDS011;63667;49.046;8.468;2023-06-04T13:35:34;8.33;;;4.90;;
142;SDS011;63667;49.046;8.468;2023-06-04T13:38:04;5.13;;;4.73;;
142;SDS011;63667;49.046;8.468;2023-06-04T13:40:47;5.23;;;4.60;;
142;SDS011;63667;49.046;8.468;2023-06-04T13:43:15;6.07;;;4.13;;
142;SDS011;63667;49.046;8.468;2023-06-04T13:45:42;5.90;;;3.70;;
142;SDS011;63667;49.046;8.468;2023-06-04T13:48:12;9.80;;;4.57;;
142;SDS011;63667;49.046;8.468;2023-06-04T13:50:40;7.73;;;4.87;;
142;SDS011;63667;49.046;8.468;2023-06-04T13:53:08;5.13;;;4.50;;
142;SDS011;63667;49.046;8.468;2023-06-04T13:55:35;5.37;;;4.70;;
142;SDS011;63667;49.046;8.468;2023-06-04T13:58:03;5.83;;;4.27;;
142;SDS011;63667;49.046;8.468;2023-06-04T14:00:30;5.57;;;3.87;;
142;SDS011;63667;49.046;8.468;2023-06-04T14:02:58;5.37;;;5.00;;
142;SDS011;63667;49.046;8.468;2023-06-04T14:05:26;5.00;;;4.53;;
142;SDS011;63667;49.046;8.468;2023-06-04T14:07:53;4.43;;;3.77;;
142;SDS011;63667;49.046;8.468;2023-06-04T14:10:21;6.73;;;4.50;;
142;SDS011;63667;49.046;8.468;2023-06-04T14:12:48;7.60;;;4.60;;
142;SDS011;63667;49.046;8.468;2023-06-04T14:15:16;7.60;;;4.80;;
142;SDS011;63667;49.046;8.468;2023-06-04T14:17:44;8.37;;;4.30;;
142;SDS011;63667;49.046;8.468;2023-06-04T14:20:13;13.33;;;4.50;;
142;SDS011;63667;49.046;8.468;2023-06-04T14:22:40;10.17;;;4.77;;
142;SDS011;63667;49.046;8.468;2023-06-04T14:25:08;5.17;;;4.80;;
142;SDS011;63667;49.046;8.468;2023-06-04T14:27:36;5.37;;;4.30;;
142;SDS011;63667;49.046;8.468;2023-06-04T14:30:03;4.50;;;4.23;;
142;SDS011;63667;49.046;8.468;2023-06-04T14:32:30;4.23;;;3.97;;
142;SDS011;63667;49.046;8.468;2023-06-04T14:34:59;4.93;;;4.43;;
142;SDS011;63667;49.046;8.468;2023-06-04T14:37:27;15.30;;;4.17;;
142;SDS011;63667;49.046;8.468;2023-06-04T14:39:54;6.43;;;4.50;;
142;SDS011;63667;49.046;8.468;2023-06-04T14:42:21;6.07;;;4.13;;
142;SDS011;63667;49.046;8.468;2023-06-04T14:44:49;5.20;;;4.40;;
142;SDS011;63667;49.046;8.468;2023-06-04T14:47:16;4.50;;;4.10;;
142;SDS011;63667;49.046;8.468;2023-06-04T14:49:43;5.03;;;3.90;;
142;SDS011;63667;49.046;8.468;2023-06-04T14:52:10;4.70;;;4.27;;
142;SDS011;63667;49.046;8.468;2023-06-04T14:54:38;5.47;;;4.33;;
142;SDS011;63667;49.046;8.468;2023-06-04T14:57:06;9.43;;;4.10;;
142;SDS011;63667;49.046;8.468;2023-06-04T14:59:35;5.70;;;3.87;;
142;SDS011;63667;49.046;8.468;2023-06-04T15:02:02;6.47;;;4.50;;
142;SDS011;63667;49.046;8.468;2023-06-04T15:04:30;5.23;;;4.20;;
142;SDS011;63667;49.046;8.468;2023-06-04T15:06:58;5.33;;;3.90;;
142;SDS011;63667;49.046;8.468;2023-06-04T15:09:25;4.83;;;4.20;;
142;SDS011;63667;49.046;8.468;2023-06-04T15:11:52;6.10;;;4.17;;
142;SDS011;63667;49.046;8.468;2023-06-04T15:14:19;4.93;;;4.20;;
142;SDS011;63667;49.046;8.468;2023-06-04T15:16:47;5.53;;;4.13;;
142;SDS011;63667;49.046;8.468;2023-06-04T15:19:14;5.83;;;3.87;;
142;SDS011;63667;49.046;8.468;2023-06-04T15:21:42;11.20;;;4.20;;
142;SDS011;63667;49.046;8.468;2023-06-04T15:24:10;4.30;;;4.00;;
142;SDS011;63667;49.046;8.468;2023-06-04T15:26:36;8.33;;;3.87;;